createdAt,value
2023-03-01T00:00:05.438Z,87.20
2023-03-01T00:02:32.201Z,87.40
2023-03-01T00:04:59.108Z,87.20
2023-03-01T00:07:25.829Z,86.80
2023-03-01T00:09:52.510Z,86.80
2023-03-01T00:12:19.269Z,86.90
2023-03-01T00:14:45.960Z,86.70
2023-03-01T00:17:12.802Z,86.60
2023-03-01T00:19:39.570Z,86.60
2023-03-01T00:22:06.336Z,86.60
2023-03-01T00:24:33.101Z,86.70
2023-03-01T00:27:00.062Z,86.60
2023-03-01T00:29:26.874Z,86.70
2023-03-01T00:31:53.668Z,86.60
2023-03-01T00:34:20.459Z,86.40
2023-03-01T00:36:47.424Z,87.00
2023-03-01T00:39:16.082Z,86.90
2023-03-01T00:41:43.855Z,87.00
2023-03-01T00:44:11.786Z,87.60
2023-03-01T00:46:38.561Z,87.40
2023-03-01T00:49:05.664Z,87.40
2023-03-01T00:51:33.170Z,87.50
2023-03-01T00:54:02.836Z,87.80
2023-03-01T00:56:30.815Z,87.80
2023-03-01T00:58:57.992Z,87.80
2023-03-01T01:01:33.325Z,87.60
2023-03-01T01:04:04.190Z,87.60
2023-03-01T01:06:35.007Z,87.80
2023-03-01T01:09:02.670Z,87.80
2023-03-01T01:11:30.780Z,88.00
2023-03-01T01:13:58.394Z,88.20
2023-03-01T01:16:27.507Z,88.50
2023-03-01T01:18:54.520Z,88.80
2023-03-01T01:21:24.145Z,89.00
2023-03-01T01:23:52.609Z,88.90
2023-03-01T01:26:22.257Z,89.10
2023-03-01T01:28:49.938Z,89.30
2023-03-01T01:31:17.334Z,89.90
2023-03-01T01:33:44.499Z,89.60
2023-03-01T01:36:11.917Z,90.20
2023-03-01T01:38:39.599Z,89.40
2023-03-01T01:41:06.977Z,89.60
2023-03-01T01:43:39.595Z,89.50
2023-03-01T01:46:40.931Z,89.40
2023-03-01T01:49:43.099Z,89.40
2023-03-01T01:52:30.710Z,89.40
2023-03-01T01:55:09.153Z,89.80
2023-03-01T01:57:46.290Z,89.80
2023-03-01T02:00:17.005Z,89.90
2023-03-01T02:02:45.773Z,89.80
2023-03-01T02:05:21.520Z,89.70
2023-03-01T02:07:49.673Z,89.90
2023-03-01T02:10:17.316Z,90.00
2023-03-01T02:12:44.442Z,90.10
2023-03-01T02:15:11.491Z,90.10
2023-03-01T02:17:38.877Z,90.10
2023-03-01T02:20:28.109Z,90.10
2023-03-01T02:22:55.463Z,90.20
2023-03-01T02:25:22.193Z,90.50
2023-03-01T02:28:09.614Z,90.20
2023-03-01T02:30:36.984Z,90.30
2023-03-01T02:33:05.438Z,90.20
2023-03-01T02:35:39.590Z,90.20
2023-03-01T02:38:09.790Z,90.10
2023-03-01T02:40:38.694Z,90.10
2023-03-01T02:43:09.474Z,90.10
2023-03-01T02:45:36.256Z,90.10
2023-03-01T02:48:03.031Z,90.30
2023-03-01T02:50:29.687Z,90.20
2023-03-01T02:53:05.664Z,90.40
2023-03-01T02:55:32.406Z,90.30
2023-03-01T02:58:03.100Z,90.30
2023-03-01T03:00:36.587Z,90.30
2023-03-01T03:03:03.367Z,90.30
2023-03-01T03:05:32.510Z,90.30
2023-03-01T03:08:01.501Z,90.40
2023-03-01T03:10:31.248Z,90.30
2023-03-01T03:13:10.218Z,90.30
2023-03-01T03:15:37.244Z,90.40
2023-03-01T03:18:06.469Z,90.50
2023-03-01T03:20:34.288Z,90.50
2023-03-01T03:23:01.375Z,90.40
2023-03-01T03:25:30.001Z,90.50
2023-03-01T03:27:58.832Z,90.50
2023-03-01T03:30:31.500Z,90.50
2023-03-01T03:32:59.512Z,90.60
2023-03-01T03:35:32.244Z,90.50
2023-03-01T03:38:07.236Z,90.60
2023-03-01T03:40:38.736Z,90.60
2023-03-01T03:43:14.210Z,90.60
2023-03-01T03:45:41.412Z,91.00
2023-03-01T03:48:11.004Z,90.70
2023-03-01T03:50:39.294Z,90.70
2023-03-01T03:53:09.183Z,90.70
2023-03-01T03:55:36.272Z,90.70
2023-03-01T03:58:07.936Z,90.80
2023-03-01T04:00:37.290Z,90.80
2023-03-01T04:03:04.473Z,90.90
2023-03-01T04:05:31.674Z,90.80
2023-03-01T04:08:08.217Z,90.80
2023-03-01T04:10:48.287Z,90.80
2023-03-01T04:13:20.569Z,90.90
2023-03-01T04:15:49.516Z,90.70
2023-03-01T04:18:18.153Z,90.80
2023-03-01T04:20:45.956Z,90.80
2023-03-01T04:23:17.054Z,90.80
2023-03-01T04:25:54.452Z,90.90
2023-03-01T04:28:35.177Z,90.90
2023-03-01T04:31:14.662Z,90.90
2023-03-01T04:33:53.093Z,91.00
2023-03-01T04:36:21.727Z,91.00
2023-03-01T04:38:48.638Z,90.90
2023-03-01T04:41:17.753Z,90.90
2023-03-01T04:43:44.620Z,90.90
2023-03-01T04:46:16.588Z,90.90
2023-03-01T04:48:44.897Z,90.90
2023-03-01T04:51:14.470Z,90.90
2023-03-01T04:53:42.397Z,90.90
2023-03-01T04:56:09.238Z,91.00
2023-03-01T04:58:36.200Z,90.90
2023-03-01T05:01:16.099Z,90.90
2023-03-01T05:03:48.487Z,90.90
2023-03-01T05:06:16.450Z,91.00
2023-03-01T05:08:44.190Z,91.00
2023-03-01T05:11:11.537Z,91.00
2023-03-01T05:13:39.812Z,91.00
2023-03-01T05:16:08.076Z,91.10
2023-03-01T05:18:35.924Z,91.10
2023-03-01T05:21:05.742Z,91.10
2023-03-01T05:23:34.267Z,91.50
2023-03-01T05:26:02.510Z,91.10
2023-03-01T05:28:29.556Z,91.10
2023-03-01T05:30:56.743Z,91.00
2023-03-01T05:33:24.189Z,91.00
2023-03-01T05:35:52.760Z,91.10
2023-03-01T05:38:19.776Z,91.10
2023-03-01T05:40:48.452Z,91.10
2023-03-01T05:43:17.721Z,91.10
2023-03-01T05:45:44.878Z,91.10
2023-03-01T05:48:12.746Z,91.20
2023-03-01T05:50:42.392Z,91.10
2023-03-01T05:53:15.774Z,91.30
2023-03-01T05:55:43.888Z,91.30
2023-03-01T05:58:12.959Z,91.20
2023-03-01T06:00:40.467Z,91.10
2023-03-01T06:03:07.332Z,91.20
2023-03-01T06:05:34.141Z,91.20
2023-03-01T06:08:01.689Z,91.20
2023-03-01T06:10:29.127Z,91.20
2023-03-01T06:12:55.953Z,91.30
2023-03-01T06:15:23.646Z,91.30
2023-03-01T06:17:50.512Z,91.30
2023-03-01T06:20:19.009Z,91.40
2023-03-01T06:22:47.311Z,91.40
2023-03-01T06:25:16.797Z,91.30
2023-03-01T06:27:43.816Z,91.40
2023-03-01T06:30:13.070Z,91.40
2023-03-01T06:32:42.803Z,91.50
2023-03-01T06:35:11.943Z,91.50
2023-03-01T06:37:38.816Z,91.50
2023-03-01T06:40:09.824Z,91.50
2023-03-01T06:42:36.862Z,91.40
2023-03-01T06:45:05.301Z,91.50
2023-03-01T06:47:33.549Z,91.30
2023-03-01T06:50:04.214Z,91.70
2023-03-01T06:52:31.403Z,91.70
2023-03-01T06:54:58.168Z,91.70
2023-03-01T06:57:25.135Z,91.80
2023-03-01T06:59:51.843Z,91.90
2023-03-01T07:02:19.242Z,91.90
2023-03-01T07:04:46.037Z,91.60
2023-03-01T07:07:13.061Z,92.00
2023-03-01T07:09:39.779Z,91.60
2023-03-01T07:12:06.811Z,91.50
2023-03-01T07:14:33.598Z,91.50
2023-03-01T07:17:00.560Z,91.40
2023-03-01T07:19:27.409Z,91.40
2023-03-01T07:21:54.237Z,91.20
2023-03-01T07:24:21.208Z,91.30
2023-03-01T07:26:52.136Z,91.40
2023-03-01T07:29:19.355Z,91.10
2023-03-01T07:31:46.244Z,91.00
2023-03-01T07:34:13.101Z,91.20
2023-03-01T07:36:40.671Z,91.20
2023-03-01T07:39:07.643Z,91.10
2023-03-01T07:41:34.512Z,91.10
2023-03-01T07:44:01.244Z,91.30
2023-03-01T07:46:28.385Z,91.10
2023-03-01T07:48:55.311Z,91.10
2023-03-01T07:51:22.367Z,91.10
2023-03-01T07:53:49.686Z,91.10
2023-03-01T07:56:18.689Z,91.00
2023-03-01T07:58:45.968Z,91.00
2023-03-01T08:01:15.786Z,90.90
2023-03-01T08:03:44.619Z,90.90
2023-03-01T08:06:13.780Z,90.90
2023-03-01T08:08:40.945Z,90.90
2023-03-01T08:11:08.879Z,90.80
2023-03-01T08:13:35.677Z,90.80
2023-03-01T08:16:08.683Z,90.80
2023-03-01T08:18:35.693Z,90.90
2023-03-01T08:21:07.942Z,90.80
2023-03-01T08:23:35.020Z,90.70
2023-03-01T08:26:06.982Z,90.80
2023-03-01T08:28:33.914Z,90.80
2023-03-01T08:31:00.701Z,90.70
2023-03-01T08:33:27.816Z,90.80
2023-03-01T08:36:07.931Z,90.70
2023-03-01T08:38:35.766Z,90.60
2023-03-01T08:41:04.481Z,90.50
2023-03-01T08:43:31.380Z,90.40
2023-03-01T08:45:58.282Z,90.30
2023-03-01T08:48:25.361Z,90.30
2023-03-01T08:50:52.180Z,90.30
2023-03-01T08:53:19.122Z,90.30
2023-03-01T08:55:46.208Z,90.30
2023-03-01T08:58:13.137Z,90.10
2023-03-01T09:00:41.109Z,89.90
2023-03-01T09:03:07.830Z,89.50
2023-03-01T09:05:35.256Z,89.30
2023-03-01T09:08:02.072Z,89.30
2023-03-01T09:10:28.943Z,89.20
2023-03-01T09:12:56.108Z,89.10
2023-03-01T09:15:22.835Z,89.20
2023-03-01T09:17:49.542Z,87.90
2023-03-01T09:20:16.642Z,88.30
2023-03-01T09:22:43.438Z,88.60
2023-03-01T09:25:10.766Z,88.20
2023-03-01T09:27:37.596Z,88.40
2023-03-01T09:30:05.426Z,88.10
2023-03-01T09:32:32.763Z,87.80
2023-03-01T09:35:04.569Z,87.60
2023-03-01T09:37:33.278Z,86.50
2023-03-01T09:40:00.250Z,86.90
2023-03-01T09:42:29.088Z,86.40
2023-03-01T09:45:02.461Z,86.20
2023-03-01T09:47:32.877Z,86.90
2023-03-01T09:50:14.242Z,86.80
2023-03-01T09:52:44.488Z,86.70
2023-03-01T09:55:12.991Z,86.20
2023-03-01T09:57:46.905Z,86.20
2023-03-01T10:00:19.531Z,86.00
2023-03-01T10:02:49.524Z,85.50
2023-03-01T10:05:28.230Z,84.80
2023-03-01T10:08:02.086Z,83.90
2023-03-01T10:10:37.025Z,83.10
2023-03-01T10:13:09.619Z,82.30
2023-03-01T10:15:39.693Z,81.90
2023-03-01T10:18:14.841Z,81.00
2023-03-01T10:21:00.403Z,80.50
2023-03-01T10:23:29.234Z,78.00
2023-03-01T10:26:30.200Z,78.50
2023-03-01T10:29:11.750Z,78.70
2023-03-01T10:31:51.588Z,79.20
2023-03-01T10:34:21.539Z,78.20
2023-03-01T10:36:54.049Z,77.60
2023-03-01T10:39:23.024Z,78.10
2023-03-01T10:41:55.100Z,78.50
2023-03-01T10:44:48.282Z,77.50
2023-03-01T10:47:22.470Z,75.90
2023-03-01T10:50:00.272Z,76.10
2023-03-01T10:52:34.047Z,76.10
2023-03-01T10:55:24.259Z,76.00
2023-03-01T10:57:51.367Z,75.20
2023-03-01T11:00:22.017Z,75.50
2023-03-01T11:02:58.632Z,76.00
2023-03-01T11:05:26.898Z,75.90
2023-03-01T11:07:57.467Z,76.10
2023-03-01T11:10:26.142Z,77.30
2023-03-01T11:13:24.820Z,76.10
2023-03-01T11:16:07.553Z,74.10
2023-03-01T11:18:47.149Z,71.30
2023-03-01T11:21:16.917Z,72.80
2023-03-01T11:23:46.591Z,72.60
2023-03-01T11:26:16.338Z,71.70
2023-03-01T11:28:45.676Z,70.50
2023-03-01T11:31:13.731Z,70.90
2023-03-01T11:34:09.895Z,70.20
2023-03-01T11:36:54.720Z,68.10
2023-03-01T11:39:47.859Z,69.90
2023-03-01T11:42:20.845Z,69.60
2023-03-01T11:44:55.943Z,69.30
2023-03-01T11:47:28.611Z,70.00
2023-03-01T11:50:14.341Z,68.90
2023-03-01T11:53:07.721Z,68.60
2023-03-01T11:55:34.468Z,68.20
2023-03-01T11:58:10.132Z,68.20
2023-03-01T12:01:12.537Z,69.20
2023-03-01T12:03:51.717Z,68.20
2023-03-01T12:06:25.133Z,67.10
2023-03-01T12:09:14.990Z,68.10
2023-03-01T12:12:19.521Z,67.80
2023-03-01T12:15:22.974Z,67.40
2023-03-01T12:18:10.257Z,65.80
2023-03-01T12:21:04.318Z,65.20
2023-03-01T12:23:39.887Z,66.80
2023-03-01T12:26:14.258Z,66.10
2023-03-01T12:29:25.248Z,65.60
2023-03-01T12:32:10.999Z,65.20
2023-03-01T12:35:09.864Z,65.10
2023-03-01T12:38:01.162Z,64.60
2023-03-01T12:40:44.100Z,63.90
2023-03-01T12:43:39.719Z,63.80
2023-03-01T12:46:40.230Z,62.70
2023-03-01T12:49:34.237Z,63.20
2023-03-01T12:52:10.461Z,63.70
2023-03-01T12:54:38.061Z,63.90
2023-03-01T12:57:18.388Z,63.70
2023-03-01T13:00:10.900Z,62.50
2023-03-01T13:03:02.054Z,63.30
2023-03-01T13:05:55.462Z,62.50
2023-03-01T13:08:35.717Z,61.60
2023-03-01T13:11:12.845Z,61.80
2023-03-01T13:13:39.626Z,61.40
2023-03-01T13:16:31.272Z,62.10
2023-03-01T13:19:10.994Z,62.00
2023-03-01T13:21:37.769Z,61.90
2023-03-01T13:24:04.883Z,61.80
2023-03-01T13:26:32.487Z,61.30
2023-03-01T13:29:01.959Z,61.90
2023-03-01T13:31:28.890Z,61.40
2023-03-01T13:34:02.412Z,61.80
2023-03-01T13:36:29.827Z,61.30
2023-03-01T13:38:58.347Z,61.40
2023-03-01T13:41:40.412Z,60.70
2023-03-01T13:44:36.962Z,61.00
2023-03-01T13:47:18.673Z,61.00
2023-03-01T13:50:01.246Z,60.90
2023-03-01T13:52:42.367Z,60.10
2023-03-01T13:55:18.106Z,60.90
2023-03-01T13:57:49.230Z,60.70
2023-03-01T14:00:35.851Z,61.00
2023-03-01T14:03:20.852Z,61.10
2023-03-01T14:06:15.329Z,61.20
2023-03-01T14:08:45.873Z,61.20
2023-03-01T14:11:39.154Z,61.20
2023-03-01T14:14:31.200Z,61.20
2023-03-01T14:17:09.774Z,59.80
2023-03-01T14:19:36.509Z,61.30
2023-03-01T14:22:30.971Z,61.50
2023-03-01T14:25:00.851Z,61.50
2023-03-01T14:27:32.529Z,61.60
2023-03-01T14:30:02.271Z,61.20
2023-03-01T14:32:31.447Z,61.70
2023-03-01T14:35:00.540Z,62.00
2023-03-01T14:37:30.632Z,62.10
2023-03-01T14:39:59.118Z,62.00
2023-03-01T14:42:30.198Z,62.70
2023-03-01T14:44:59.022Z,62.30
2023-03-01T14:47:34.662Z,63.10
2023-03-01T14:50:09.362Z,62.60
2023-03-01T14:52:42.705Z,62.70
2023-03-01T14:55:34.051Z,63.30
2023-03-01T14:58:03.400Z,63.90
2023-03-01T15:00:32.820Z,64.20
2023-03-01T15:03:22.623Z,64.30
2023-03-01T15:05:49.456Z,64.50
2023-03-01T15:08:25.439Z,64.50
2023-03-01T15:11:25.414Z,65.00
2023-03-01T15:13:53.726Z,65.20
2023-03-01T15:16:24.499Z,65.60
2023-03-01T15:18:57.654Z,65.50
2023-03-01T15:21:25.817Z,65.60
2023-03-01T15:24:05.847Z,66.10
2023-03-01T15:26:41.565Z,66.60
2023-03-01T15:29:18.807Z,66.50
2023-03-01T15:31:59.926Z,66.50
2023-03-01T15:34:35.012Z,66.90
2023-03-01T15:37:03.458Z,66.90
2023-03-01T15:39:39.059Z,67.10
2023-03-01T15:42:18.904Z,67.60
2023-03-01T15:44:48.405Z,67.70
2023-03-01T15:47:24.546Z,67.20
2023-03-01T15:49:55.795Z,67.00
2023-03-01T15:52:43.600Z,67.20
2023-03-01T15:55:30.994Z,67.30
2023-03-01T15:58:03.697Z,67.40
2023-03-01T16:00:30.801Z,67.20
2023-03-01T16:02:57.764Z,67.00
2023-03-01T16:05:31.542Z,67.10
2023-03-01T16:07:58.567Z,67.80
2023-03-01T16:10:25.657Z,67.70
2023-03-01T16:12:53.602Z,67.30
2023-03-01T16:15:25.024Z,67.90
2023-03-01T16:17:53.185Z,67.70
2023-03-01T16:20:30.965Z,67.80
2023-03-01T16:23:03.679Z,67.90
2023-03-01T16:25:31.296Z,68.10
2023-03-01T16:27:59.498Z,68.40
2023-03-01T16:30:26.320Z,68.60
2023-03-01T16:32:54.134Z,68.90
2023-03-01T16:35:22.376Z,69.00
2023-03-01T16:37:49.862Z,68.50
2023-03-01T16:40:21.846Z,68.60
2023-03-01T16:42:51.821Z,69.20
2023-03-01T16:45:24.345Z,69.30
2023-03-01T16:47:55.502Z,69.20
2023-03-01T16:50:23.405Z,69.40
2023-03-01T16:52:50.301Z,69.60
2023-03-01T16:55:17.589Z,69.60
2023-03-01T16:57:44.878Z,69.70
2023-03-01T17:00:14.162Z,69.70
2023-03-01T17:02:42.424Z,69.90
2023-03-01T17:05:11.063Z,70.00
2023-03-01T17:07:38.585Z,71.20
2023-03-01T17:10:08.988Z,71.30
2023-03-01T17:12:36.104Z,71.60
2023-03-01T17:15:03.809Z,71.80
2023-03-01T17:17:30.535Z,71.70
2023-03-01T17:19:57.458Z,71.70
2023-03-01T17:22:24.308Z,72.10
2023-03-01T17:24:51.006Z,72.30
2023-03-01T17:27:18.501Z,72.70
2023-03-01T17:29:45.556Z,73.20
2023-03-01T17:32:12.472Z,73.20
2023-03-01T17:34:39.879Z,73.30
2023-03-01T17:37:06.695Z,73.60
2023-03-01T17:39:36.344Z,73.60
2023-03-01T17:42:06.177Z,74.60
2023-03-01T17:44:35.778Z,73.50
2023-03-01T17:47:04.142Z,73.90
2023-03-01T17:49:31.357Z,73.90
2023-03-01T17:51:58.648Z,74.00
2023-03-01T17:54:26.136Z,74.10
2023-03-01T17:56:53.213Z,74.10
2023-03-01T17:59:20.025Z,74.30
2023-03-01T18:01:47.576Z,74.40
2023-03-01T18:04:14.416Z,74.80
2023-03-01T18:06:41.211Z,75.00
2023-03-01T18:09:08.574Z,74.90
2023-03-01T18:11:36.149Z,75.00
2023-03-01T18:14:04.324Z,75.00
2023-03-01T18:16:33.974Z,75.20
2023-03-01T18:19:01.984Z,75.40
2023-03-01T18:21:34.490Z,75.80
2023-03-01T18:24:01.929Z,86.40
2023-03-01T18:26:29.814Z,99.90
2023-03-01T18:28:58.397Z,99.90
2023-03-01T18:31:25.901Z,99.90
2023-03-01T18:33:55.103Z,92.20
2023-03-01T18:36:24.815Z,80.60
2023-03-01T18:38:56.556Z,77.80
2023-03-01T18:41:25.626Z,78.20
2023-03-01T18:43:53.717Z,77.90
2023-03-01T18:46:20.617Z,78.00
2023-03-01T18:48:48.178Z,78.70
2023-03-01T18:51:20.637Z,78.90
2023-03-01T18:53:47.496Z,78.80
2023-03-01T18:56:17.694Z,79.20
2023-03-01T18:58:45.761Z,79.40
2023-03-01T19:01:21.287Z,79.40
2023-03-01T19:03:48.208Z,79.70
2023-03-01T19:06:15.222Z,79.90
2023-03-01T19:08:44.405Z,80.10
2023-03-01T19:11:14.026Z,80.00
2023-03-01T19:13:41.331Z,80.00
2023-03-01T19:16:11.580Z,80.20
2023-03-01T19:18:42.337Z,80.10
2023-03-01T19:21:11.110Z,80.30
2023-03-01T19:23:39.001Z,80.70
2023-03-01T19:26:09.856Z,80.70
2023-03-01T19:28:39.196Z,81.00
2023-03-01T19:31:08.766Z,80.90
2023-03-01T19:33:36.619Z,81.10
2023-03-01T19:36:04.158Z,81.20
2023-03-01T19:38:31.101Z,81.20
2023-03-01T19:40:58.135Z,81.20
2023-03-01T19:43:25.340Z,81.30
2023-03-01T19:45:54.846Z,81.30
2023-03-01T19:48:23.184Z,81.30
2023-03-01T19:50:53.093Z,81.40
2023-03-01T19:53:20.807Z,81.40
2023-03-01T19:55:48.479Z,81.50
2023-03-01T19:58:15.381Z,81.60
2023-03-01T20:00:46.570Z,81.70
2023-03-01T20:03:14.274Z,81.80
2023-03-01T20:05:43.117Z,81.70
2023-03-01T20:08:13.185Z,81.60
2023-03-01T20:10:43.493Z,81.70
2023-03-01T20:13:12.647Z,81.60
2023-03-01T20:15:43.009Z,81.90
2023-03-01T20:18:11.446Z,81.90
2023-03-01T20:20:41.404Z,82.10
2023-03-01T20:23:08.373Z,82.20
2023-03-01T20:25:35.289Z,82.10
2023-03-01T20:28:02.983Z,82.10
2023-03-01T20:30:29.919Z,82.10
2023-03-01T20:32:56.922Z,82.30
2023-03-01T20:35:24.133Z,82.30
2023-03-01T20:37:54.984Z,82.60
2023-03-01T20:40:26.967Z,82.40
2023-03-01T20:42:57.731Z,82.30
2023-03-01T20:45:27.981Z,82.30
2023-03-01T20:47:55.515Z,82.10
2023-03-01T20:50:22.616Z,82.40
2023-03-01T20:52:49.539Z,83.20
2023-03-01T20:55:16.896Z,82.50
2023-03-01T20:57:43.879Z,82.20
2023-03-01T21:00:11.444Z,82.60
2023-03-01T21:02:39.006Z,82.60
2023-03-01T21:05:06.760Z,82.70
2023-03-01T21:07:33.939Z,82.90
2023-03-01T21:10:00.859Z,82.90
2023-03-01T21:12:27.857Z,83.20
2023-03-01T21:14:54.678Z,83.00
2023-03-01T21:17:21.507Z,83.00
2023-03-01T21:19:49.811Z,83.90
2023-03-01T21:22:16.735Z,83.10
2023-03-01T21:24:43.646Z,83.10
2023-03-01T21:27:11.124Z,83.10
2023-03-01T21:29:43.485Z,83.10
2023-03-01T21:32:11.678Z,83.10
2023-03-01T21:34:39.610Z,83.30
2023-03-01T21:37:08.270Z,83.30
2023-03-01T21:39:35.266Z,83.30
2023-03-01T21:42:03.875Z,83.30
2023-03-01T21:44:31.614Z,83.40
2023-03-01T21:46:59.059Z,83.50
2023-03-01T21:49:27.008Z,83.70
2023-03-01T21:51:54.125Z,83.90
2023-03-01T21:54:21.401Z,83.80
2023-03-01T21:56:48.967Z,84.00
2023-03-01T21:59:18.583Z,83.80
2023-03-01T22:01:46.850Z,83.90
2023-03-01T22:04:14.511Z,83.70
2023-03-01T22:06:43.894Z,84.10
2023-03-01T22:09:14.922Z,84.20
2023-03-01T22:11:45.411Z,84.20
2023-03-01T22:14:13.930Z,84.30
2023-03-01T22:16:45.201Z,84.50
2023-03-01T22:19:14.223Z,84.60
2023-03-01T22:21:44.305Z,84.80
2023-03-01T22:24:12.556Z,84.80
2023-03-01T22:26:44.786Z,84.80
2023-03-01T22:29:14.583Z,84.90
2023-03-01T22:31:41.877Z,85.00
2023-03-01T22:34:09.483Z,85.10
2023-03-01T22:36:36.944Z,85.60
2023-03-01T22:39:04.436Z,86.00
2023-03-01T22:41:44.983Z,85.60
2023-03-01T22:44:13.076Z,85.40
2023-03-01T22:46:40.086Z,85.40
2023-03-01T22:49:07.129Z,85.30
2023-03-01T22:51:37.350Z,85.50
2023-03-01T22:54:04.575Z,85.40
2023-03-01T22:56:34.638Z,85.40
2023-03-01T22:59:04.939Z,85.60
2023-03-01T23:01:31.940Z,85.70
2023-03-01T23:03:58.963Z,85.70
2023-03-01T23:06:25.809Z,85.90
2023-03-01T23:08:54.850Z,85.90
2023-03-01T23:11:22.884Z,85.80
2023-03-01T23:13:50.424Z,85.70
2023-03-01T23:16:17.868Z,85.90
2023-03-01T23:18:45.186Z,86.20
2023-03-01T23:21:14.759Z,86.20
2023-03-01T23:23:42.170Z,86.30
2023-03-01T23:26:09.682Z,86.40
2023-03-01T23:28:40.792Z,86.50
2023-03-01T23:31:10.243Z,86.70
2023-03-01T23:33:40.191Z,86.90
2023-03-01T23:36:32.457Z,87.10
2023-03-01T23:39:02.293Z,87.20
2023-03-01T23:41:31.816Z,87.30
2023-03-01T23:44:00.357Z,87.30
2023-03-01T23:46:29.957Z,87.30
2023-03-01T23:48:57.252Z,87.30
2023-03-01T23:51:25.280Z,87.30
2023-03-01T23:53:57.473Z,87.30
2023-03-01T23:56:33.232Z,87.40
2023-03-01T23:59:04.022Z,87.50
